sensor_id;sensor_type;location;lat;lon;timestamp;temperature;humidity
71155;DHT22;59375;53.216;5.728;2023-02-28T00:01:01;4.30;99.90
71155;DHT22;59375;53.216;5.728;2023-02-28T00:03:26;4.30;99.90
71155;DHT22;59375;53.216;5.728;2023-02-28T00:05:51;4.30;99.90
71155;DHT22;59375;53.216;5.728;2023-02-28T00:08:17;4.30;99.90
71155;DHT22;59375;53.216;5.728;2023-02-28T00:10:42;4.30;99.90
71155;DHT22;59375;53.216;5.728;2023-02-28T00:13:08;4.30;99.90
71155;DHT22;59375;53.216;5.728;2023-02-28T00:15:33;4.30;99.90
71155;DHT22;59375;53.216;5.728;2023-02-28T00:17:59;4.30;99.90
71155;DHT22;59375;53.216;5.728;2023-02-28T00:20:24;4.30;99.90
71155;DHT22;59375;53.216;5.728;2023-02-28T00:22:51;4.30;99.90
71155;DHT22;59375;53.216;5.728;2023-02-28T00:25:18;4.30;99.90
71155;DHT22;59375;53.216;5.728;2023-02-28T00:27:43;4.30;99.90
71155;DHT22;59375;53.216;5.728;2023-02-28T00:30:10;4.20;99.90
71155;DHT22;59375;53.216;5.728;2023-02-28T00:32:36;4.30;99.90
71155;DHT22;59375;53.216;5.728;2023-02-28T00:35:02;4.20;99.90
71155;DHT22;59375;53.216;5.728;2023-02-28T00:37:27;4.30;99.90
71155;DHT22;59375;53.216;5.728;2023-02-28T00:39:53;4.20;99.90
71155;DHT22;59375;53.216;5.728;2023-02-28T00:42:18;4.30;99.90
71155;DHT22;59375;53.216;5.728;2023-02-28T00:44:43;4.30;99.90
71155;DHT22;59375;53.216;5.728;2023-02-28T00:47:09;4.30;99.90
71155;DHT22;59375;53.216;5.728;2023-02-28T00:49:34;4.30;99.90
71155;DHT22;59375;53.216;5.728;2023-02-28T00:52:00;4.30;99.90
71155;DHT22;59375;53.216;5.728;2023-02-28T00:54:25;4.40;99.90
71155;DHT22;59375;53.216;5.728;2023-02-28T00:56:51;4.40;99.90
71155;DHT22;59375;53.216;5.728;2023-02-28T00:59:16;4.40;99.90
71155;DHT22;59375;53.216;5.728;2023-02-28T01:01:42;4.40;99.90
71155;DHT22;59375;53.216;5.728;2023-02-28T01:04:08;4.40;99.90
71155;DHT22;59375;53.216;5.728;2023-02-28T01:06:33;4.50;99.90
71155;DHT22;59375;53.216;5.728;2023-02-28T01:08:59;4.50;99.90
71155;DHT22;59375;53.216;5.728;2023-02-28T01:11:25;4.40;99.90
71155;DHT22;59375;53.216;5.728;2023-02-28T01:13:50;4.40;99.90
71155;DHT22;59375;53.216;5.728;2023-02-28T01:16:16;4.40;99.90
71155;DHT22;59375;53.216;5.728;2023-02-28T01:18:41;4.40;99.90
71155;DHT22;59375;53.216;5.728;2023-02-28T01:21:08;4.40;99.90
71155;DHT22;59375;53.216;5.728;2023-02-28T01:23:34;4.50;99.90
71155;DHT22;59375;53.216;5.728;2023-02-28T01:26:04;4.50;99.90
71155;DHT22;59375;53.216;5.728;2023-02-28T01:28:29;4.50;99.90
71155;DHT22;59375;53.216;5.728;2023-02-28T01:30:55;4.60;99.90
71155;DHT22;59375;53.216;5.728;2023-02-28T01:33:20;4.50;99.90
71155;DHT22;59375;53.216;5.728;2023-02-28T01:35:46;4.60;99.90
71155;DHT22;59375;53.216;5.728;2023-02-28T01:38:11;4.60;99.90
71155;DHT22;59375;53.216;5.728;2023-02-28T01:40:36;4.60;99.90
71155;DHT22;59375;53.216;5.728;2023-02-28T01:43:02;4.60;99.90
71155;DHT22;59375;53.216;5.728;2023-02-28T01:45:28;4.60;99.90
71155;DHT22;59375;53.216;5.728;2023-02-28T01:47:55;4.60;99.90
71155;DHT22;59375;53.216;5.728;2023-02-28T01:50:24;4.70;99.90
71155;DHT22;59375;53.216;5.728;2023-02-28T01:52:50;4.70;99.90
71155;DHT22;59375;53.216;5.728;2023-02-28T01:55:17;4.70;99.90
71155;DHT22;59375;53.216;5.728;2023-02-28T01:57:48;4.70;99.90
71155;DHT22;59375;53.216;5.728;2023-02-28T02:00:14;4.70;99.90
71155;DHT22;59375;53.216;5.728;2023-02-28T02:02:44;4.70;99.90
71155;DHT22;59375;53.216;5.728;2023-02-28T02:05:15;4.70;99.90
71155;DHT22;59375;53.216;5.728;2023-02-28T02:07:41;4.70;99.90
71155;DHT22;59375;53.216;5.728;2023-02-28T02:10:15;4.70;99.90
71155;DHT22;59375;53.216;5.728;2023-02-28T02:15:09;4.70;99.90
71155;DHT22;59375;53.216;5.728;2023-02-28T02:17:38;4.60;99.90
71155;DHT22;59375;53.216;5.728;2023-02-28T02:23:00;4.60;99.90
71155;DHT22;59375;53.216;5.728;2023-02-28T02:25:42;4.70;99.90
71155;DHT22;59375;53.216;5.728;2023-02-28T02:28:17;4.70;99.90
71155;DHT22;59375;53.216;5.728;2023-02-28T02:33:43;4.70;99.90
71155;DHT22;59375;53.216;5.728;2023-02-28T02:38:43;4.80;99.90
71155;DHT22;59375;53.216;5.728;2023-02-28T02:41:23;4.80;99.90
71155;DHT22;59375;53.216;5.728;2023-02-28T02:43:51;4.80;99.90
71155;DHT22;59375;53.216;5.728;2023-02-28T02:46:21;4.80;99.90
71155;DHT22;59375;53.216;5.728;2023-02-28T02:48:48;4.80;99.90
71155;DHT22;59375;53.216;5.728;2023-02-28T02:51:16;4.80;99.90
71155;DHT22;59375;53.216;5.728;2023-02-28T02:53:44;4.80;99.90
71155;DHT22;59375;53.216;5.728;2023-02-28T02:56:11;4.80;99.90
71155;DHT22;59375;53.216;5.728;2023-02-28T02:58:38;4.90;99.90
71155;DHT22;59375;53.216;5.728;2023-02-28T03:01:07;4.90;99.90
71155;DHT22;59375;53.216;5.728;2023-02-28T03:03:34;4.90;99.90
71155;DHT22;59375;53.216;5.728;2023-02-28T03:06:00;4.90;99.90
71155;DHT22;59375;53.216;5.728;2023-02-28T03:08:27;4.90;99.90
71155;DHT22;59375;53.216;5.728;2023-02-28T03:10:56;4.90;99.90
71155;DHT22;59375;53.216;5.728;2023-02-28T03:18:23;4.90;99.90
71155;DHT22;59375;53.216;5.728;2023-02-28T03:23:45;4.90;99.90
71155;DHT22;59375;53.216;5.728;2023-02-28T03:26:13;4.80;99.90
71155;DHT22;59375;53.216;5.728;2023-02-28T03:31:20;4.80;99.90
71155;DHT22;59375;53.216;5.728;2023-02-28T03:33:51;4.90;99.90
71155;DHT22;59375;53.216;5.728;2023-02-28T03:36:21;4.90;99.90
71155;DHT22;59375;53.216;5.728;2023-02-28T03:38:50;4.90;99.90
71155;DHT22;59375;53.216;5.728;2023-02-28T03:41:19;4.90;99.90
71155;DHT22;59375;53.216;5.728;2023-02-28T03:43:48;4.90;99.90
71155;DHT22;59375;53.216;5.728;2023-02-28T03:46:16;4.90;99.90
71155;DHT22;59375;53.216;5.728;2023-02-28T03:48:51;4.90;99.90
71155;DHT22;59375;53.216;5.728;2023-02-28T03:51:18;4.90;99.90
71155;DHT22;59375;53.216;5.728;2023-02-28T03:53:46;4.90;99.90
71155;DHT22;59375;53.216;5.728;2023-02-28T04:01:11;5.00;99.90
71155;DHT22;59375;53.216;5.728;2023-02-28T04:03:38;5.00;99.90
71155;DHT22;59375;53.216;5.728;2023-02-28T04:06:04;5.00;99.90
71155;DHT22;59375;53.216;5.728;2023-02-28T04:08:30;5.10;99.90
71155;DHT22;59375;53.216;5.728;2023-02-28T04:10:57;5.00;99.90
71155;DHT22;59375;53.216;5.728;2023-02-28T04:13:24;5.10;99.90
71155;DHT22;59375;53.216;5.728;2023-02-28T04:15:49;5.10;99.90
71155;DHT22;59375;53.216;5.728;2023-02-28T04:18:15;5.00;99.90
71155;DHT22;59375;53.216;5.728;2023-02-28T04:20:40;5.00;99.90
71155;DHT22;59375;53.216;5.728;2023-02-28T04:23:05;5.00;99.90
71155;DHT22;59375;53.216;5.728;2023-02-28T04:25:31;5.00;99.90
71155;DHT22;59375;53.216;5.728;2023-02-28T04:27:56;5.00;99.90
71155;DHT22;59375;53.216;5.728;2023-02-28T04:30:22;5.00;99.90
71155;DHT22;59375;53.216;5.728;2023-02-28T04:32:47;5.10;99.90
71155;DHT22;59375;53.216;5.728;2023-02-28T04:35:13;5.10;99.90
71155;DHT22;59375;53.216;5.728;2023-02-28T04:37:38;5.00;99.90
71155;DHT22;59375;53.216;5.728;2023-02-28T04:40:04;5.10;99.90
71155;DHT22;59375;53.216;5.728;2023-02-28T04:42:29;5.10;99.90
71155;DHT22;59375;53.216;5.728;2023-02-28T04:45:03;5.10;99.90
71155;DHT22;59375;53.216;5.728;2023-02-28T04:47:29;5.00;99.90
71155;DHT22;59375;53.216;5.728;2023-02-28T04:49:55;5.00;99.90
71155;DHT22;59375;53.216;5.728;2023-02-28T04:52:20;5.00;99.90
71155;DHT22;59375;53.216;5.728;2023-02-28T04:54:45;5.00;99.90
71155;DHT22;59375;53.216;5.728;2023-02-28T04:57:11;5.00;99.90
71155;DHT22;59375;53.216;5.728;2023-02-28T04:59:36;5.00;99.90
71155;DHT22;59375;53.216;5.728;2023-02-28T05:02:02;4.90;99.90
71155;DHT22;59375;53.216;5.728;2023-02-28T05:04:35;5.00;99.90
71155;DHT22;59375;53.216;5.728;2023-02-28T05:07:01;5.00;99.90
71155;DHT22;59375;53.216;5.728;2023-02-28T05:09:26;5.10;99.90
71155;DHT22;59375;53.216;5.728;2023-02-28T05:11:52;5.10;99.90
71155;DHT22;59375;53.216;5.728;2023-02-28T05:14:17;5.10;99.90
71155;DHT22;59375;53.216;5.728;2023-02-28T05:16:43;5.10;99.90
71155;DHT22;59375;53.216;5.728;2023-02-28T05:19:08;5.10;99.90
71155;DHT22;59375;53.216;5.728;2023-02-28T05:21:35;5.10;99.90
71155;DHT22;59375;53.216;5.728;2023-02-28T05:24:02;5.10;99.90
71155;DHT22;59375;53.216;5.728;2023-02-28T05:26:27;5.20;99.90
71155;DHT22;59375;53.216;5.728;2023-02-28T05:28:53;5.20;99.90
71155;DHT22;59375;53.216;5.728;2023-02-28T05:31:19;5.20;99.90
71155;DHT22;59375;53.216;5.728;2023-02-28T05:33:44;5.20;99.90
71155;DHT22;59375;53.216;5.728;2023-02-28T05:36:10;5.30;99.90
71155;DHT22;59375;53.216;5.728;2023-02-28T05:38:35;5.30;99.90
71155;DHT22;59375;53.216;5.728;2023-02-28T05:41:04;5.30;99.90
71155;DHT22;59375;53.216;5.728;2023-02-28T05:43:30;5.30;99.90
71155;DHT22;59375;53.216;5.728;2023-02-28T05:45:55;5.30;99.90
71155;DHT22;59375;53.216;5.728;2023-02-28T05:48:21;5.30;99.90
71155;DHT22;59375;53.216;5.728;2023-02-28T05:50:46;5.30;99.90
71155;DHT22;59375;53.216;5.728;2023-02-28T05:53:12;5.30;99.90
71155;DHT22;59375;53.216;5.728;2023-02-28T05:55:37;5.30;99.90
71155;DHT22;59375;53.216;5.728;2023-02-28T05:58:03;5.30;99.90
71155;DHT22;59375;53.216;5.728;2023-02-28T06:00:28;5.40;99.90
71155;DHT22;59375;53.216;5.728;2023-02-28T06:02:54;5.30;99.90
71155;DHT22;59375;53.216;5.728;2023-02-28T06:05:23;5.30;99.90
71155;DHT22;59375;53.216;5.728;2023-02-28T06:07:48;5.30;99.90
71155;DHT22;59375;53.216;5.728;2023-02-28T06:10:14;5.30;99.90
71155;DHT22;59375;53.216;5.728;2023-02-28T06:12:39;5.40;99.90
71155;DHT22;59375;53.216;5.728;2023-02-28T06:15:07;5.40;99.90
71155;DHT22;59375;53.216;5.728;2023-02-28T06:17:32;5.40;99.90
71155;DHT22;59375;53.216;5.728;2023-02-28T06:19:58;5.40;99.90
71155;DHT22;59375;53.216;5.728;2023-02-28T06:22:23;5.40;99.90
71155;DHT22;59375;53.216;5.728;2023-02-28T06:24:49;5.40;99.90
71155;DHT22;59375;53.216;5.728;2023-02-28T06:27:14;5.40;99.90
71155;DHT22;59375;53.216;5.728;2023-02-28T06:29:40;5.40;99.90
71155;DHT22;59375;53.216;5.728;2023-02-28T06:32:05;5.40;99.90
71155;DHT22;59375;53.216;5.728;2023-02-28T06:34:31;5.40;99.90
71155;DHT22;59375;53.216;5.728;2023-02-28T06:36:56;5.40;99.90
71155;DHT22;59375;53.216;5.728;2023-02-28T06:39:22;5.50;99.90
71155;DHT22;59375;53.216;5.728;2023-02-28T06:41:47;5.50;99.90
71155;DHT22;59375;53.216;5.728;2023-02-28T06:44:13;5.40;99.90
71155;DHT22;59375;53.216;5.728;2023-02-28T06:46:40;5.30;99.90
71155;DHT22;59375;53.216;5.728;2023-02-28T06:49:06;5.10;99.90
71155;DHT22;59375;53.216;5.728;2023-02-28T06:51:34;4.80;99.90
71155;DHT22;59375;53.216;5.728;2023-02-28T06:54:00;4.60;99.90
71155;DHT22;59375;53.216;5.728;2023-02-28T06:56:25;4.50;99.90
71155;DHT22;59375;53.216;5.728;2023-02-28T06:58:51;4.40;99.90
71155;DHT22;59375;53.216;5.728;2023-02-28T07:01:18;4.30;99.90
71155;DHT22;59375;53.216;5.728;2023-02-28T07:03:44;4.30;99.90
71155;DHT22;59375;53.216;5.728;2023-02-28T07:06:10;4.20;99.90
71155;DHT22;59375;53.216;5.728;2023-02-28T07:08:35;4.10;99.90
71155;DHT22;59375;53.216;5.728;2023-02-28T07:11:01;4.10;99.90
71155;DHT22;59375;53.216;5.728;2023-02-28T07:13:27;4.10;99.90
71155;DHT22;59375;53.216;5.728;2023-02-28T07:16:00;4.00;99.90
71155;DHT22;59375;53.216;5.728;2023-02-28T07:18:26;3.90;99.90
71155;DHT22;59375;53.216;5.728;2023-02-28T07:20:52;3.90;99.90
71155;DHT22;59375;53.216;5.728;2023-02-28T07:23:17;3.90;99.90
71155;DHT22;59375;53.216;5.728;2023-02-28T07:25:43;3.90;99.90
71155;DHT22;59375;53.216;5.728;2023-02-28T07:28:09;3.90;99.90
71155;DHT22;59375;53.216;5.728;2023-02-28T07:30:34;3.80;99.90
71155;DHT22;59375;53.216;5.728;2023-02-28T07:33:00;3.80;99.90
71155;DHT22;59375;53.216;5.728;2023-02-28T07:35:25;3.80;99.90
71155;DHT22;59375;53.216;5.728;2023-02-28T07:37:50;3.80;99.90
71155;DHT22;59375;53.216;5.728;2023-02-28T07:40:16;3.80;99.90
71155;DHT22;59375;53.216;5.728;2023-02-28T07:42:43;3.70;99.90
71155;DHT22;59375;53.216;5.728;2023-02-28T07:45:09;3.70;99.90
71155;DHT22;59375;53.216;5.728;2023-02-28T07:47:37;3.70;99.90
71155;DHT22;59375;53.216;5.728;2023-02-28T07:50:03;3.70;99.90
71155;DHT22;59375;53.216;5.728;2023-02-28T07:52:28;3.70;99.90
71155;DHT22;59375;53.216;5.728;2023-02-28T07:54:54;3.60;99.90
71155;DHT22;59375;53.216;5.728;2023-02-28T07:57:19;3.70;99.90
71155;DHT22;59375;53.216;5.728;2023-02-28T07:59:44;3.70;99.90
71155;DHT22;59375;53.216;5.728;2023-02-28T08:02:13;3.70;99.90
71155;DHT22;59375;53.216;5.728;2023-02-28T08:04:39;3.70;99.90
71155;DHT22;59375;53.216;5.728;2023-02-28T08:07:05;3.70;99.90
71155;DHT22;59375;53.216;5.728;2023-02-28T08:09:30;3.70;99.90
71155;DHT22;59375;53.216;5.728;2023-02-28T08:11:56;3.60;99.90
71155;DHT22;59375;53.216;5.728;2023-02-28T08:14:22;3.60;99.90
71155;DHT22;59375;53.216;5.728;2023-02-28T08:16:47;3.70;99.90
71155;DHT22;59375;53.216;5.728;2023-02-28T08:19:13;3.60;99.90
71155;DHT22;59375;53.216;5.728;2023-02-28T08:21:38;3.60;99.90
71155;DHT22;59375;53.216;5.728;2023-02-28T08:24:05;3.60;99.90
71155;DHT22;59375;53.216;5.728;2023-02-28T08:26:30;3.60;99.90
71155;DHT22;59375;53.216;5.728;2023-02-28T08:28:56;3.70;99.90
71155;DHT22;59375;53.216;5.728;2023-02-28T08:31:21;3.70;99.90
71155;DHT22;59375;53.216;5.728;2023-02-28T08:33:48;3.70;99.90
71155;DHT22;59375;53.216;5.728;2023-02-28T08:36:16;3.80;99.90
71155;DHT22;59375;53.216;5.728;2023-02-28T08:38:42;3.80;99.90
71155;DHT22;59375;53.216;5.728;2023-02-28T08:41:08;3.80;99.90
71155;DHT22;59375;53.216;5.728;2023-02-28T08:43:34;3.80;99.90
71155;DHT22;59375;53.216;5.728;2023-02-28T08:46:00;3.80;99.90
71155;DHT22;59375;53.216;5.728;2023-02-28T08:48:26;3.80;99.90
71155;DHT22;59375;53.216;5.728;2023-02-28T08:50:56;3.80;99.90
71155;DHT22;59375;53.216;5.728;2023-02-28T08:53:21;3.90;99.90
71155;DHT22;59375;53.216;5.728;2023-02-28T08:55:47;4.00;99.90
71155;DHT22;59375;53.216;5.728;2023-02-28T08:58:12;4.00;99.90
71155;DHT22;59375;53.216;5.728;2023-02-28T09:00:38;4.00;99.90
71155;DHT22;59375;53.216;5.728;2023-02-28T09:03:03;4.10;99.90
71155;DHT22;59375;53.216;5.728;2023-02-28T09:05:28;4.10;99.90
71155;DHT22;59375;53.216;5.728;2023-02-28T09:07:55;4.10;99.90
71155;DHT22;59375;53.216;5.728;2023-02-28T09:10:20;4.10;99.90
71155;DHT22;59375;53.216;5.728;2023-02-28T09:12:45;4.20;99.90
71155;DHT22;59375;53.216;5.728;2023-02-28T09:15:12;4.20;99.90
71155;DHT22;59375;53.216;5.728;2023-02-28T09:17:37;4.30;99.90
71155;DHT22;59375;53.216;5.728;2023-02-28T09:20:03;4.30;99.90
71155;DHT22;59375;53.216;5.728;2023-02-28T09:22:30;4.30;99.90
71155;DHT22;59375;53.216;5.728;2023-02-28T09:24:55;4.40;99.90
71155;DHT22;59375;53.216;5.728;2023-02-28T09:27:21;4.50;99.90
71155;DHT22;59375;53.216;5.728;2023-02-28T09:29:46;4.50;99.90
71155;DHT22;59375;53.216;5.728;2023-02-28T09:32:12;4.60;99.90
71155;DHT22;59375;53.216;5.728;2023-02-28T09:34:37;4.60;99.90
71155;DHT22;59375;53.216;5.728;2023-02-28T09:37:02;4.70;99.90
71155;DHT22;59375;53.216;5.728;2023-02-28T09:39:28;4.70;99.90
71155;DHT22;59375;53.216;5.728;2023-02-28T09:41:54;4.70;99.90
71155;DHT22;59375;53.216;5.728;2023-02-28T09:44:22;4.90;99.90
71155;DHT22;59375;53.216;5.728;2023-02-28T09:46:51;5.10;99.90
71155;DHT22;59375;53.216;5.728;2023-02-28T09:49:27;5.30;99.90
71155;DHT22;59375;53.216;5.728;2023-02-28T09:51:56;5.60;99.90
71155;DHT22;59375;53.216;5.728;2023-02-28T09:54:24;5.80;99.90
71155;DHT22;59375;53.216;5.728;2023-02-28T09:56:51;5.70;99.90
71155;DHT22;59375;53.216;5.728;2023-02-28T10:02:15;5.70;99.90
71155;DHT22;59375;53.216;5.728;2023-02-28T10:07:17;5.60;99.90
71155;DHT22;59375;53.216;5.728;2023-02-28T10:09:45;5.60;99.90
71155;DHT22;59375;53.216;5.728;2023-02-28T10:12:12;5.70;99.90
71155;DHT22;59375;53.216;5.728;2023-02-28T10:14:37;5.70;99.90
71155;DHT22;59375;53.216;5.728;2023-02-28T10:17:11;5.60;99.90
71155;DHT22;59375;53.216;5.728;2023-02-28T10:19:59;5.70;99.90
71155;DHT22;59375;53.216;5.728;2023-02-28T10:24:52;5.70;99.90
71155;DHT22;59375;53.216;5.728;2023-02-28T10:27:22;5.80;99.90
71155;DHT22;59375;53.216;5.728;2023-02-28T10:29:55;5.90;99.90
71155;DHT22;59375;53.216;5.728;2023-02-28T10:32:25;6.20;99.90
71155;DHT22;59375;53.216;5.728;2023-02-28T10:35:00;6.50;99.90
71155;DHT22;59375;53.216;5.728;2023-02-28T10:37:27;6.80;99.90
71155;DHT22;59375;53.216;5.728;2023-02-28T10:39:52;7.20;99.90
71155;DHT22;59375;53.216;5.728;2023-02-28T10:42:28;7.80;99.90
71155;DHT22;59375;53.216;5.728;2023-02-28T10:47:31;8.40;99.90
71155;DHT22;59375;53.216;5.728;2023-02-28T10:49:58;8.30;99.90
71155;DHT22;59375;53.216;5.728;2023-02-28T10:52:33;8.20;99.90
71155;DHT22;59375;53.216;5.728;2023-02-28T10:55:14;8.30;99.90
71155;DHT22;59375;53.216;5.728;2023-02-28T10:57:39;8.40;99.90
71155;DHT22;59375;53.216;5.728;2023-02-28T11:00:11;8.70;99.90
71155;DHT22;59375;53.216;5.728;2023-02-28T11:02:38;9.10;99.90
71155;DHT22;59375;53.216;5.728;2023-02-28T11:07:53;10.30;99.90
71155;DHT22;59375;53.216;5.728;2023-02-28T11:10:19;10.40;99.90
71155;DHT22;59375;53.216;5.728;2023-02-28T11:12:46;10.40;99.90
71155;DHT22;59375;53.216;5.728;2023-02-28T11:15:24;10.30;99.90
71155;DHT22;59375;53.216;5.728;2023-02-28T11:18:18;10.30;99.90
71155;DHT22;59375;53.216;5.728;2023-02-28T11:20:47;10.30;99.90
71155;DHT22;59375;53.216;5.728;2023-02-28T11:23:13;10.00;99.90
71155;DHT22;59375;53.216;5.728;2023-02-28T11:25:39;9.90;99.90
71155;DHT22;59375;53.216;5.728;2023-02-28T11:28:06;9.80;99.90
71155;DHT22;59375;53.216;5.728;2023-02-28T11:30:33;9.80;99.90
71155;DHT22;59375;53.216;5.728;2023-02-28T11:33:18;9.80;99.90
71155;DHT22;59375;53.216;5.728;2023-02-28T11:35:44;9.90;99.90
71155;DHT22;59375;53.216;5.728;2023-02-28T11:38:11;10.20;99.90
71155;DHT22;59375;53.216;5.728;2023-02-28T11:41:01;10.30;99.90
71155;DHT22;59375;53.216;5.728;2023-02-28T11:43:35;10.50;99.90
71155;DHT22;59375;53.216;5.728;2023-02-28T11:48:51;11.00;99.90
71155;DHT22;59375;53.216;5.728;2023-02-28T11:51:21;11.20;99.90
71155;DHT22;59375;53.216;5.728;2023-02-28T11:56:31;12.10;99.90
71155;DHT22;59375;53.216;5.728;2023-02-28T12:04:25;11.60;99.90
71155;DHT22;59375;53.216;5.728;2023-02-28T12:07:18;11.40;99.90
71155;DHT22;59375;53.216;5.728;2023-02-28T12:10:03;11.20;99.90
71155;DHT22;59375;53.216;5.728;2023-02-28T12:12:37;11.20;99.90
71155;DHT22;59375;53.216;5.728;2023-02-28T12:17:35;10.90;99.90
71155;DHT22;59375;53.216;5.728;2023-02-28T12:22:39;10.80;99.90
71155;DHT22;59375;53.216;5.728;2023-02-28T12:27:37;10.50;99.90
71155;DHT22;59375;53.216;5.728;2023-02-28T12:32:42;10.30;99.90
71155;DHT22;59375;53.216;5.728;2023-02-28T12:37:40;10.30;99.90
71155;DHT22;59375;53.216;5.728;2023-02-28T12:40:41;10.30;99.90
71155;DHT22;59375;53.216;5.728;2023-02-28T12:43:02;10.30;99.90
71155;DHT22;59375;53.216;5.728;2023-02-28T12:45:49;10.40;99.90
71155;DHT22;59375;53.216;5.728;2023-02-28T12:48:17;10.30;99.90
71155;DHT22;59375;53.216;5.728;2023-02-28T12:50:45;10.40;99.90
71155;DHT22;59375;53.216;5.728;2023-02-28T12:55:57;10.80;99.90
71155;DHT22;59375;53.216;5.728;2023-02-28T12:58:31;11.30;99.90
71155;DHT22;59375;53.216;5.728;2023-02-28T13:06:41;14.30;99.90
71155;DHT22;59375;53.216;5.728;2023-02-28T13:09:16;15.40;99.90
71155;DHT22;59375;53.216;5.728;2023-02-28T13:11:43;15.30;99.90
71155;DHT22;59375;53.216;5.728;2023-02-28T13:14:29;15.10;99.90
71155;DHT22;59375;53.216;5.728;2023-02-28T13:16:56;14.40;99.90
71155;DHT22;59375;53.216;5.728;2023-02-28T13:19:23;13.60;99.90
71155;DHT22;59375;53.216;5.728;2023-02-28T13:21:49;13.90;99.90
71155;DHT22;59375;53.216;5.728;2023-02-28T13:34:37;13.60;99.90
71155;DHT22;59375;53.216;5.728;2023-02-28T13:39:48;11.80;99.90
71155;DHT22;59375;53.216;5.728;2023-02-28T13:47:30;10.60;99.90
71155;DHT22;59375;53.216;5.728;2023-02-28T13:52:44;10.40;99.90
71155;DHT22;59375;53.216;5.728;2023-02-28T13:55:19;11.10;99.90
71155;DHT22;59375;53.216;5.728;2023-02-28T13:57:52;11.70;99.90
71155;DHT22;59375;53.216;5.728;2023-02-28T14:05:30;13.60;99.90
71155;DHT22;59375;53.216;5.728;2023-02-28T14:07:58;14.30;99.90
71155;DHT22;59375;53.216;5.728;2023-02-28T14:10:28;15.10;99.20
71155;DHT22;59375;53.216;5.728;2023-02-28T14:12:59;15.30;97.00
71155;DHT22;59375;53.216;5.728;2023-02-28T14:15:39;15.00;97.00
71155;DHT22;59375;53.216;5.728;2023-02-28T14:18:13;15.50;97.40
71155;DHT22;59375;53.216;5.728;2023-02-28T14:20:39;15.50;96.10
71155;DHT22;59375;53.216;5.728;2023-02-28T14:25:36;15.80;96.10
71155;DHT22;59375;53.216;5.728;2023-02-28T14:28:11;16.40;96.10
71155;DHT22;59375;53.216;5.728;2023-02-28T14:33:23;17.10;93.00
71155;DHT22;59375;53.216;5.728;2023-02-28T14:36:00;17.00;91.20
71155;DHT22;59375;53.216;5.728;2023-02-28T14:38:31;16.50;88.40
71155;DHT22;59375;53.216;5.728;2023-02-28T14:40:58;16.00;90.10
71155;DHT22;59375;53.216;5.728;2023-02-28T14:43:25;15.40;90.40
71155;DHT22;59375;53.216;5.728;2023-02-28T14:45:53;14.50;91.00
71155;DHT22;59375;53.216;5.728;2023-02-28T14:48:19;13.60;92.90
71155;DHT22;59375;53.216;5.728;2023-02-28T14:50:52;12.90;94.90
71155;DHT22;59375;53.216;5.728;2023-02-28T14:53:18;12.60;97.20
71155;DHT22;59375;53.216;5.728;2023-02-28T14:55:45;12.40;99.20
71155;DHT22;59375;53.216;5.728;2023-02-28T14:58:27;12.30;99.90
71155;DHT22;59375;53.216;5.728;2023-02-28T15:00:54;12.20;99.90
71155;DHT22;59375;53.216;5.728;2023-02-28T15:03:24;12.00;99.90
71155;DHT22;59375;53.216;5.728;2023-02-28T15:05:56;11.70;99.90
71155;DHT22;59375;53.216;5.728;2023-02-28T15:08:22;11.40;99.90
71155;DHT22;59375;53.216;5.728;2023-02-28T15:11:30;11.00;99.90
71155;DHT22;59375;53.216;5.728;2023-02-28T15:13:38;10.30;99.90
71155;DHT22;59375;53.216;5.728;2023-02-28T15:16:07;10.10;99.90
71155;DHT22;59375;53.216;5.728;2023-02-28T15:21:21;10.00;99.90
71155;DHT22;59375;53.216;5.728;2023-02-28T15:23:57;10.10;99.90
71155;DHT22;59375;53.216;5.728;2023-02-28T15:26:27;10.10;99.90
71155;DHT22;59375;53.216;5.728;2023-02-28T15:29:05;10.20;99.90
71155;DHT22;59375;53.216;5.728;2023-02-28T15:31:35;9.90;99.90
71155;DHT22;59375;53.216;5.728;2023-02-28T15:34:03;9.80;99.90
71155;DHT22;59375;53.216;5.728;2023-02-28T15:36:30;9.60;99.90
71155;DHT22;59375;53.216;5.728;2023-02-28T15:38:58;9.30;99.90
71155;DHT22;59375;53.216;5.728;2023-02-28T15:41:26;9.10;99.90
71155;DHT22;59375;53.216;5.728;2023-02-28T15:46:36;8.90;99.90
71155;DHT22;59375;53.216;5.728;2023-02-28T15:49:01;8.80;99.90
71155;DHT22;59375;53.216;5.728;2023-02-28T15:53:59;8.60;99.90
71155;DHT22;59375;53.216;5.728;2023-02-28T15:58:58;8.50;99.90
71155;DHT22;59375;53.216;5.728;2023-02-28T16:01:28;8.50;99.90
71155;DHT22;59375;53.216;5.728;2023-02-28T16:03:57;8.60;99.90
71155;DHT22;59375;53.216;5.728;2023-02-28T16:08:51;8.40;99.90
71155;DHT22;59375;53.216;5.728;2023-02-28T16:11:18;8.10;99.90
71155;DHT22;59375;53.216;5.728;2023-02-28T16:13:44;8.10;99.90
71155;DHT22;59375;53.216;5.728;2023-02-28T16:16:14;8.00;99.90
71155;DHT22;59375;53.216;5.728;2023-02-28T16:18:40;7.90;99.90
71155;DHT22;59375;53.216;5.728;2023-02-28T16:21:05;7.80;99.90
71155;DHT22;59375;53.216;5.728;2023-02-28T16:23:31;7.80;99.90
71155;DHT22;59375;53.216;5.728;2023-02-28T16:25:56;7.80;99.90
71155;DHT22;59375;53.216;5.728;2023-02-28T16:28:26;7.80;99.90
71155;DHT22;59375;53.216;5.728;2023-02-28T16:30:56;7.80;99.90
71155;DHT22;59375;53.216;5.728;2023-02-28T16:33:21;7.80;99.90
71155;DHT22;59375;53.216;5.728;2023-02-28T16:35:47;7.80;99.90
71155;DHT22;59375;53.216;5.728;2023-02-28T16:38:12;7.70;99.90
71155;DHT22;59375;53.216;5.728;2023-02-28T16:40:38;7.60;99.90
71155;DHT22;59375;53.216;5.728;2023-02-28T16:43:07;7.60;99.90
71155;DHT22;59375;53.216;5.728;2023-02-28T16:45:35;7.60;99.90
71155;DHT22;59375;53.216;5.728;2023-02-28T16:48:00;7.50;99.90
71155;DHT22;59375;53.216;5.728;2023-02-28T16:50:27;7.50;99.90
71155;DHT22;59375;53.216;5.728;2023-02-28T16:52:53;7.40;99.90
71155;DHT22;59375;53.216;5.728;2023-02-28T16:55:22;7.40;99.90
71155;DHT22;59375;53.216;5.728;2023-02-28T16:57:52;7.30;99.90
71155;DHT22;59375;53.216;5.728;2023-02-28T17:00:18;7.20;99.90
71155;DHT22;59375;53.216;5.728;2023-02-28T17:02:43;7.10;99.90
71155;DHT22;59375;53.216;5.728;2023-02-28T17:05:12;7.10;99.90
71155;DHT22;59375;53.216;5.728;2023-02-28T17:07:38;7.00;99.90
71155;DHT22;59375;53.216;5.728;2023-02-28T17:10:14;6.90;99.90
71155;DHT22;59375;53.216;5.728;2023-02-28T17:12:40;6.80;99.90
71155;DHT22;59375;53.216;5.728;2023-02-28T17:15:06;6.70;99.90
71155;DHT22;59375;53.216;5.728;2023-02-28T17:17:31;6.60;99.90
71155;DHT22;59375;53.216;5.728;2023-02-28T17:19:57;6.50;99.90
71155;DHT22;59375;53.216;5.728;2023-02-28T17:22:23;6.40;99.90
71155;DHT22;59375;53.216;5.728;2023-02-28T17:24:50;6.40;99.90
71155;DHT22;59375;53.216;5.728;2023-02-28T17:27:16;6.30;99.90
71155;DHT22;59375;53.216;5.728;2023-02-28T17:29:41;6.20;99.90
71155;DHT22;59375;53.216;5.728;2023-02-28T17:32:07;6.20;99.90
71155;DHT22;59375;53.216;5.728;2023-02-28T17:34:32;6.10;99.90
71155;DHT22;59375;53.216;5.728;2023-02-28T17:36:58;6.10;99.90
71155;DHT22;59375;53.216;5.728;2023-02-28T17:39:23;6.00;99.90
71155;DHT22;59375;53.216;5.728;2023-02-28T17:41:52;6.00;99.90